sensor_id;sensor_type;location;lat;lon;timestamp;pressure;altitude;pressure_sealevel;temperature;humidity
28312;BME280;15572;48.810;9.148;2023-02-19T00:01:12;98665.50;;;8.83;100.00
28312;BME280;15572;48.810;9.148;2023-02-19T00:06:10;98671.59;;;8.77;100.00
28312;BME280;15572;48.810;9.148;2023-02-19T00:11:07;98663.84;;;8.74;100.00
28312;BME280;15572;48.810;9.148;2023-02-19T00:16:06;98662.50;;;8.70;100.00
28312;BME280;15572;48.810;9.148;2023-02-19T00:21:05;98649.97;;;8.77;100.00
28312;BME280;15572;48.810;9.148;2023-02-19T00:26:02;98651.16;;;8.82;100.00
28312;BME280;15572;48.810;9.148;2023-02-19T00:31:03;98645.91;;;8.89;100.00
28312;BME280;15572;48.810;9.148;2023-02-19T00:36:00;98648.59;;;8.97;100.00
28312;BME280;15572;48.810;9.148;2023-02-19T00:40:58;98655.47;;;9.00;100.00
28312;BME280;15572;48.810;9.148;2023-02-19T00:45:55;98664.41;;;9.00;100.00
28312;BME280;15572;48.810;9.148;2023-02-19T00:50:51;98653.56;;;9.08;100.00
28312;BME280;15572;48.810;9.148;2023-02-19T00:55:48;98656.78;;;9.12;100.00
28312;BME280;15572;48.810;9.148;2023-02-19T01:00:45;98638.34;;;9.15;100.00
28312;BME280;15572;48.810;9.148;2023-02-19T01:05:42;98636.97;;;9.19;100.00
28312;BME280;15572;48.810;9.148;2023-02-19T01:10:38;98632.50;;;9.57;100.00
28312;BME280;15572;48.810;9.148;2023-02-19T01:15:35;98623.88;;;9.39;100.00
28312;BME280;15572;48.810;9.148;2023-02-19T01:20:33;98621.91;;;9.56;100.00
28312;BME280;15572;48.810;9.148;2023-02-19T01:25:30;98627.06;;;9.65;100.00
28312;BME280;15572;48.810;9.148;2023-02-19T01:30:26;98613.72;;;9.64;100.00
28312;BME280;15572;48.810;9.148;2023-02-19T01:35:22;98611.38;;;9.61;100.00
28312;BME280;15572;48.810;9.148;2023-02-19T01:40:20;98608.44;;;9.70;100.00
28312;BME280;15572;48.810;9.148;2023-02-19T01:45:22;98611.59;;;9.74;100.00
28312;BME280;15572;48.810;9.148;2023-02-19T01:50:18;98615.28;;;9.81;100.00
28312;BME280;15572;48.810;9.148;2023-02-19T01:55:15;98615.75;;;9.85;100.00
28312;BME280;15572;48.810;9.148;2023-02-19T02:00:15;98610.28;;;9.93;100.00
28312;BME280;15572;48.810;9.148;2023-02-19T02:05:18;98606.06;;;9.90;100.00
28312;BME280;15572;48.810;9.148;2023-02-19T02:10:17;98611.69;;;9.66;100.00
28312;BME280;15572;48.810;9.148;2023-02-19T02:15:18;98609.31;;;9.63;100.00
28312;BME280;15572;48.810;9.148;2023-02-19T02:20:36;98611.84;;;9.42;100.00
28312;BME280;15572;48.810;9.148;2023-02-19T02:25:56;98599.59;;;9.31;100.00
28312;BME280;15572;48.810;9.148;2023-02-19T02:30:58;98581.00;;;9.05;100.00
28312;BME280;15572;48.810;9.148;2023-02-19T02:35:59;98572.22;;;8.80;100.00
28312;BME280;15572;48.810;9.148;2023-02-19T02:40:58;98571.91;;;8.75;100.00
28312;BME280;15572;48.810;9.148;2023-02-19T02:45:55;98573.28;;;8.63;100.00
28312;BME280;15572;48.810;9.148;2023-02-19T02:50:58;98577.47;;;8.74;100.00
28312;BME280;15572;48.810;9.148;2023-02-19T02:55:55;98572.38;;;8.79;100.00
28312;BME280;15572;48.810;9.148;2023-02-19T03:00:56;98573.75;;;8.75;100.00
28312;BME280;15572;48.810;9.148;2023-02-19T03:06:16;98573.38;;;8.78;100.00
28312;BME280;15572;48.810;9.148;2023-02-19T03:11:15;98573.25;;;8.71;100.00
28312;BME280;15572;48.810;9.148;2023-02-19T03:16:33;98572.09;;;8.66;100.00
28312;BME280;15572;48.810;9.148;2023-02-19T03:21:52;98561.03;;;8.53;100.00
28312;BME280;15572;48.810;9.148;2023-02-19T03:26:50;98565.25;;;8.47;100.00
28312;BME280;15572;48.810;9.148;2023-02-19T03:31:48;98562.34;;;8.57;100.00
28312;BME280;15572;48.810;9.148;2023-02-19T03:36:54;98560.91;;;8.38;100.00
28312;BME280;15572;48.810;9.148;2023-02-19T03:41:57;98566.81;;;8.33;100.00
28312;BME280;15572;48.810;9.148;2023-02-19T03:46:59;98563.47;;;8.31;100.00
28312;BME280;15572;48.810;9.148;2023-02-19T03:52:03;98570.72;;;8.31;100.00
28312;BME280;15572;48.810;9.148;2023-02-19T03:57:14;98580.13;;;8.27;100.00
28312;BME280;15572;48.810;9.148;2023-02-19T04:02:15;98575.75;;;8.26;100.00
28312;BME280;15572;48.810;9.148;2023-02-19T04:07:15;98583.47;;;8.29;100.00
28312;BME280;15572;48.810;9.148;2023-02-19T04:12:13;98591.09;;;8.33;100.00
28312;BME280;15572;48.810;9.148;2023-02-19T04:17:17;98584.16;;;8.39;100.00
28312;BME280;15572;48.810;9.148;2023-02-19T04:22:16;98600.53;;;8.37;100.00
28312;BME280;15572;48.810;9.148;2023-02-19T04:27:14;98591.44;;;8.38;100.00
28312;BME280;15572;48.810;9.148;2023-02-19T04:32:11;98602.88;;;8.40;100.00
28312;BME280;15572;48.810;9.148;2023-02-19T04:37:08;98614.34;;;8.42;100.00
28312;BME280;15572;48.810;9.148;2023-02-19T04:42:06;98622.44;;;8.42;100.00
28312;BME280;15572;48.810;9.148;2023-02-19T04:47:03;98624.63;;;8.39;100.00
28312;BME280;15572;48.810;9.148;2023-02-19T04:52:00;98630.34;;;8.44;100.00
28312;BME280;15572;48.810;9.148;2023-02-19T04:56:56;98635.91;;;8.59;100.00
28312;BME280;15572;48.810;9.148;2023-02-19T05:01:54;98642.16;;;8.51;100.00
28312;BME280;15572;48.810;9.148;2023-02-19T05:06:51;98642.50;;;8.48;100.00
28312;BME280;15572;48.810;9.148;2023-02-19T05:11:48;98649.22;;;8.52;100.00
28312;BME280;15572;48.810;9.148;2023-02-19T05:16:44;98656.97;;;8.55;100.00
28312;BME280;15572;48.810;9.148;2023-02-19T05:21:42;98660.88;;;8.53;100.00
28312;BME280;15572;48.810;9.148;2023-02-19T05:26:39;98653.28;;;8.48;100.00
28312;BME280;15572;48.810;9.148;2023-02-19T05:31:35;98652.09;;;8.51;100.00
28312;BME280;15572;48.810;9.148;2023-02-19T05:36:32;98659.69;;;8.47;100.00
28312;BME280;15572;48.810;9.148;2023-02-19T05:41:29;98672.00;;;8.50;100.00
28312;BME280;15572;48.810;9.148;2023-02-19T05:46:27;98677.53;;;8.56;100.00
28312;BME280;15572;48.810;9.148;2023-02-19T05:51:25;98676.22;;;8.52;100.00
28312;BME280;15572;48.810;9.148;2023-02-19T05:56:33;98678.41;;;8.57;100.00
28312;BME280;15572;48.810;9.148;2023-02-19T06:01:30;98686.84;;;8.45;100.00
28312;BME280;15572;48.810;9.148;2023-02-19T06:06:27;98691.91;;;8.49;100.00
28312;BME280;15572;48.810;9.148;2023-02-19T06:11:24;98682.97;;;8.48;100.00
28312;BME280;15572;48.810;9.148;2023-02-19T06:16:22;98697.81;;;8.52;100.00
28312;BME280;15572;48.810;9.148;2023-02-19T06:21:19;98707.44;;;8.47;100.00
28312;BME280;15572;48.810;9.148;2023-02-19T06:26:18;98705.06;;;8.35;100.00
28312;BME280;15572;48.810;9.148;2023-02-19T06:31:15;98703.56;;;8.41;100.00
28312;BME280;15572;48.810;9.148;2023-02-19T06:36:15;98702.53;;;8.42;100.00
28312;BME280;15572;48.810;9.148;2023-02-19T06:41:13;98713.00;;;8.53;100.00
28312;BME280;15572;48.810;9.148;2023-02-19T06:46:10;98721.03;;;8.77;100.00
28312;BME280;15572;48.810;9.148;2023-02-19T06:51:10;98737.22;;;8.77;100.00
28312;BME280;15572;48.810;9.148;2023-02-19T06:56:21;98753.09;;;8.72;100.00
28312;BME280;15572;48.810;9.148;2023-02-19T07:01:19;98748.19;;;8.84;100.00
28312;BME280;15572;48.810;9.148;2023-02-19T07:06:15;98760.50;;;8.86;100.00
28312;BME280;15572;48.810;9.148;2023-02-19T07:11:13;98759.66;;;8.86;100.00
28312;BME280;15572;48.810;9.148;2023-02-19T07:16:10;98756.78;;;8.87;100.00
28312;BME280;15572;48.810;9.148;2023-02-19T07:21:09;98764.53;;;8.82;100.00
28312;BME280;15572;48.810;9.148;2023-02-19T07:26:10;98773.50;;;8.83;100.00
28312;BME280;15572;48.810;9.148;2023-02-19T07:31:08;98782.28;;;8.77;100.00
28312;BME280;15572;48.810;9.148;2023-02-19T07:36:06;98783.22;;;9.08;100.00
28312;BME280;15572;48.810;9.148;2023-02-19T07:41:05;98785.47;;;8.97;100.00
28312;BME280;15572;48.810;9.148;2023-02-19T07:46:02;98783.72;;;9.12;100.00
28312;BME280;15572;48.810;9.148;2023-02-19T07:51:00;98796.34;;;9.27;100.00
28312;BME280;15572;48.810;9.148;2023-02-19T07:56:01;98797.88;;;9.14;100.00
28312;BME280;15572;48.810;9.148;2023-02-19T08:01:05;98804.47;;;9.19;100.00
28312;BME280;15572;48.810;9.148;2023-02-19T08:06:04;98802.06;;;9.24;100.00
28312;BME280;15572;48.810;9.148;2023-02-19T08:11:01;98809.16;;;9.34;100.00
28312;BME280;15572;48.810;9.148;2023-02-19T08:16:17;98811.66;;;9.35;100.00
28312;BME280;15572;48.810;9.148;2023-02-19T08:21:16;98803.72;;;9.42;100.00
28312;BME280;15572;48.810;9.148;2023-02-19T08:26:14;98804.41;;;9.44;100.00
28312;BME280;15572;48.810;9.148;2023-02-19T08:31:11;98822.75;;;9.56;100.00
28312;BME280;15572;48.810;9.148;2023-02-19T08:36:09;98835.38;;;9.72;97.18
28312;BME280;15572;48.810;9.148;2023-02-19T08:41:09;98839.31;;;9.53;100.00
28312;BME280;15572;48.810;9.148;2023-02-19T08:46:07;98835.56;;;9.62;99.76
28312;BME280;15572;48.810;9.148;2023-02-19T08:51:06;98840.47;;;9.59;100.00
28312;BME280;15572;48.810;9.148;2023-02-19T08:56:04;98840.34;;;9.52;100.00
28312;BME280;15572;48.810;9.148;2023-02-19T09:01:05;98858.78;;;9.41;100.00
28312;BME280;15572;48.810;9.148;2023-02-19T09:06:03;98862.88;;;9.20;100.00
28312;BME280;15572;48.810;9.148;2023-02-19T09:11:00;98875.75;;;9.10;100.00
28312;BME280;15572;48.810;9.148;2023-02-19T09:15:57;98891.94;;;9.10;100.00
28312;BME280;15572;48.810;9.148;2023-02-19T09:20:58;98887.16;;;9.37;100.00
28312;BME280;15572;48.810;9.148;2023-02-19T09:25:56;98873.34;;;9.32;100.00
28312;BME280;15572;48.810;9.148;2023-02-19T09:30:54;98890.19;;;9.50;95.70
28312;BME280;15572;48.810;9.148;2023-02-19T09:35:50;98910.72;;;9.67;95.73
28312;BME280;15572;48.810;9.148;2023-02-19T09:40:48;98896.28;;;9.91;89.42
28312;BME280;15572;48.810;9.148;2023-02-19T09:45:45;98898.63;;;10.02;87.10
28312;BME280;15572;48.810;9.148;2023-02-19T09:50:44;98898.31;;;9.97;89.80
28312;BME280;15572;48.810;9.148;2023-02-19T09:55:42;98910.72;;;10.22;82.89
28312;BME280;15572;48.810;9.148;2023-02-19T10:00:41;98903.19;;;10.40;81.55
28312;BME280;15572;48.810;9.148;2023-02-19T10:05:38;98907.59;;;10.41;79.88
28312;BME280;15572;48.810;9.148;2023-02-19T10:10:36;98881.34;;;10.42;78.61
28312;BME280;15572;48.810;9.148;2023-02-19T10:15:37;98893.41;;;10.62;79.19
28312;BME280;15572;48.810;9.148;2023-02-19T10:20:37;98899.59;;;10.71;78.56
28312;BME280;15572;48.810;9.148;2023-02-19T10:25:34;98915.38;;;10.67;77.41
28312;BME280;15572;48.810;9.148;2023-02-19T10:30:32;98922.88;;;10.80;77.50
28312;BME280;15572;48.810;9.148;2023-02-19T10:35:30;98925.34;;;10.67;78.77
28312;BME280;15572;48.810;9.148;2023-02-19T10:40:32;98923.50;;;10.67;78.53
28312;BME280;15572;48.810;9.148;2023-02-19T10:45:33;98934.09;;;11.00;77.67
28312;BME280;15572;48.810;9.148;2023-02-19T10:50:31;98945.16;;;11.13;77.93
28312;BME280;15572;48.810;9.148;2023-02-19T10:55:32;98945.66;;;10.93;77.71
28312;BME280;15572;48.810;9.148;2023-02-19T11:00:29;98953.88;;;10.77;78.34
28312;BME280;15572;48.810;9.148;2023-02-19T11:05:26;98951.75;;;10.65;79.90
28312;BME280;15572;48.810;9.148;2023-02-19T11:10:25;98956.09;;;10.51;80.29
28312;BME280;15572;48.810;9.148;2023-02-19T11:15:27;98958.78;;;10.51;80.76
28312;BME280;15572;48.810;9.148;2023-02-19T11:20:25;98965.91;;;10.52;80.47
28312;BME280;15572;48.810;9.148;2023-02-19T11:25:23;98960.41;;;10.29;81.14
28312;BME280;15572;48.810;9.148;2023-02-19T11:30:46;98945.06;;;10.13;83.65
28312;BME280;15572;48.810;9.148;2023-02-19T11:35:43;98933.09;;;10.00;84.13
28312;BME280;15572;48.810;9.148;2023-02-19T11:40:44;98939.16;;;10.18;82.90
28312;BME280;15572;48.810;9.148;2023-02-19T11:45:46;98958.38;;;10.31;83.95
28312;BME280;15572;48.810;9.148;2023-02-19T11:50:52;98954.28;;;10.66;80.96
28312;BME280;15572;48.810;9.148;2023-02-19T11:56:06;98951.50;;;10.74;80.83
28312;BME280;15572;48.810;9.148;2023-02-19T12:01:14;98962.25;;;10.68;79.96
28312;BME280;15572;48.810;9.148;2023-02-19T12:06:22;98975.81;;;10.60;79.47
28312;BME280;15572;48.810;9.148;2023-02-19T12:11:31;98973.78;;;10.62;78.39
28312;BME280;15572;48.810;9.148;2023-02-19T12:16:37;98967.84;;;10.66;77.19
28312;BME280;15572;48.810;9.148;2023-02-19T12:27:08;98940.69;;;10.97;75.95
28312;BME280;15572;48.810;9.148;2023-02-19T12:32:46;98928.41;;;10.86;76.31
28312;BME280;15572;48.810;9.148;2023-02-19T12:37:51;98930.59;;;10.68;76.42
28312;BME280;15572;48.810;9.148;2023-02-19T12:43:00;98961.72;;;10.95;76.10
28312;BME280;15572;48.810;9.148;2023-02-19T12:48:05;98948.09;;;10.80;76.73
28312;BME280;15572;48.810;9.148;2023-02-19T12:53:21;98932.47;;;10.68;77.10
28312;BME280;15572;48.810;9.148;2023-02-19T12:58:26;98935.53;;;10.87;75.00
28312;BME280;15572;48.810;9.148;2023-02-19T13:03:29;98937.19;;;11.11;74.08
28312;BME280;15572;48.810;9.148;2023-02-19T13:08:30;98945.47;;;10.95;71.65
28312;BME280;15572;48.810;9.148;2023-02-19T13:13:30;98941.00;;;10.79;72.58
28312;BME280;15572;48.810;9.148;2023-02-19T13:18:33;98936.97;;;10.75;73.04
28312;BME280;15572;48.810;9.148;2023-02-19T13:23:32;98931.09;;;10.64;75.14
28312;BME280;15572;48.810;9.148;2023-02-19T13:28:58;98944.84;;;10.62;75.90
28312;BME280;15572;48.810;9.148;2023-02-19T13:34:03;98948.09;;;10.58;75.17
28312;BME280;15572;48.810;9.148;2023-02-19T13:39:05;98945.59;;;10.48;76.83
28312;BME280;15572;48.810;9.148;2023-02-19T13:44:04;98940.78;;;10.35;78.15
28312;BME280;15572;48.810;9.148;2023-02-19T13:49:34;98933.81;;;10.41;76.33
28312;BME280;15572;48.810;9.148;2023-02-19T13:54:33;98929.75;;;10.37;79.61
28312;BME280;15572;48.810;9.148;2023-02-19T13:59:36;98932.56;;;10.12;84.77
28312;BME280;15572;48.810;9.148;2023-02-19T14:04:47;98929.75;;;9.98;84.86
28312;BME280;15572;48.810;9.148;2023-02-19T14:09:45;98926.22;;;9.89;86.18
28312;BME280;15572;48.810;9.148;2023-02-19T14:14:43;98923.66;;;10.04;84.10
28312;BME280;15572;48.810;9.148;2023-02-19T14:20:00;98924.06;;;10.15;83.12
28312;BME280;15572;48.810;9.148;2023-02-19T14:24:59;98928.63;;;10.54;78.35
28312;BME280;15572;48.810;9.148;2023-02-19T14:29:56;98933.78;;;10.72;76.46
28312;BME280;15572;48.810;9.148;2023-02-19T14:34:54;98943.50;;;10.58;75.74
28312;BME280;15572;48.810;9.148;2023-02-19T14:39:52;98944.19;;;10.60;74.87
28312;BME280;15572;48.810;9.148;2023-02-19T14:44:55;98938.22;;;10.65;75.93
28312;BME280;15572;48.810;9.148;2023-02-19T14:49:56;98960.25;;;10.62;74.52
28312;BME280;15572;48.810;9.148;2023-02-19T14:54:56;98964.81;;;10.61;73.32
28312;BME280;15572;48.810;9.148;2023-02-19T14:59:55;98961.13;;;10.54;74.45
28312;BME280;15572;48.810;9.148;2023-02-19T15:05:00;98957.53;;;10.62;73.48
28312;BME280;15572;48.810;9.148;2023-02-19T15:10:04;98970.25;;;10.53;74.51
28312;BME280;15572;48.810;9.148;2023-02-19T15:15:04;98982.25;;;10.59;74.43
28312;BME280;15572;48.810;9.148;2023-02-19T15:20:07;98996.31;;;10.54;74.75
28312;BME280;15572;48.810;9.148;2023-02-19T15:25:06;99002.50;;;10.40;76.59
28312;BME280;15572;48.810;9.148;2023-02-19T15:30:14;99006.91;;;10.41;77.20
28312;BME280;15572;48.810;9.148;2023-02-19T15:35:19;99009.63;;;10.33;78.40
28312;BME280;15572;48.810;9.148;2023-02-19T15:40:18;99011.31;;;10.26;80.33
28312;BME280;15572;48.810;9.148;2023-02-19T15:45:20;99017.28;;;10.21;80.86
28312;BME280;15572;48.810;9.148;2023-02-19T15:50:23;99022.88;;;10.20;81.59
28312;BME280;15572;48.810;9.148;2023-02-19T15:55:29;99014.75;;;10.20;82.28
28312;BME280;15572;48.810;9.148;2023-02-19T16:00:35;98999.19;;;10.13;82.85
28312;BME280;15572;48.810;9.148;2023-02-19T16:05:34;99003.09;;;10.19;81.66
28312;BME280;15572;48.810;9.148;2023-02-19T16:10:34;99026.94;;;10.07;82.86
28312;BME280;15572;48.810;9.148;2023-02-19T16:15:31;99028.47;;;9.94;84.71
28312;BME280;15572;48.810;9.148;2023-02-19T16:20:30;99021.41;;;9.85;85.68
28312;BME280;15572;48.810;9.148;2023-02-19T16:25:34;99033.59;;;9.81;87.08
28312;BME280;15572;48.810;9.148;2023-02-19T16:30:32;99019.91;;;9.74;88.20
28312;BME280;15572;48.810;9.148;2023-02-19T16:35:34;99022.06;;;9.95;86.78
28312;BME280;15572;48.810;9.148;2023-02-19T16:41:03;99023.81;;;9.71;88.16
28312;BME280;15572;48.810;9.148;2023-02-19T16:46:00;99012.47;;;9.52;89.61
28312;BME280;15572;48.810;9.148;2023-02-19T16:50:56;99016.69;;;9.62;89.46
28312;BME280;15572;48.810;9.148;2023-02-19T16:55:53;99013.50;;;9.59;89.71
28312;BME280;15572;48.810;9.148;2023-02-19T17:00:51;99017.22;;;9.50;90.69
28312;BME280;15572;48.810;9.148;2023-02-19T17:05:48;99022.13;;;9.38;92.24
28312;BME280;15572;48.810;9.148;2023-02-19T17:10:45;99026.66;;;9.46;92.24
28312;BME280;15572;48.810;9.148;2023-02-19T17:15:41;99055.22;;;9.32;93.54
28312;BME280;15572;48.810;9.148;2023-02-19T17:20:40;99057.09;;;9.32;94.05
28312;BME280;15572;48.810;9.148;2023-02-19T17:25:37;99057.94;;;9.24;95.79
28312;BME280;15572;48.810;9.148;2023-02-19T17:30:33;99059.75;;;9.15;96.90
28312;BME280;15572;48.810;9.148;2023-02-19T17:35:30;99067.56;;;9.18;96.99
28312;BME280;15572;48.810;9.148;2023-02-19T17:40:30;99079.88;;;9.13;98.13
28312;BME280;15572;48.810;9.148;2023-02-19T17:45:27;99089.28;;;9.09;98.86
28312;BME280;15572;48.810;9.148;2023-02-19T17:50:25;99080.69;;;9.05;98.68
28312;BME280;15572;48.810;9.148;2023-02-19T17:55:23;99096.19;;;9.03;99.47
28312;BME280;15572;48.810;9.148;2023-02-19T18:00:23;99105.19;;;9.12;98.05
28312;BME280;15572;48.810;9.148;2023-02-19T18:05:20;99126.09;;;9.10;98.57
28312;BME280;15572;48.810;9.148;2023-02-19T18:10:19;99133.72;;;9.06;97.94
28312;BME280;15572;48.810;9.148;2023-02-19T18:15:17;99140.91;;;8.98;99.44
28312;BME280;15572;48.810;9.148;2023-02-19T18:20:18;99153.47;;;9.07;97.52
28312;BME280;15572;48.810;9.148;2023-02-19T18:25:16;99147.88;;;9.08;96.69
28312;BME280;15572;48.810;9.148;2023-02-19T18:30:17;99151.41;;;9.01;97.80
28312;BME280;15572;48.810;9.148;2023-02-19T18:35:19;99152.25;;;9.01;97.12
28312;BME280;15572;48.810;9.148;2023-02-19T18:40:16;99150.75;;;9.07;95.71
28312;BME280;15572;48.810;9.148;2023-02-19T18:45:12;99152.91;;;8.95;96.94
28312;BME280;15572;48.810;9.148;2023-02-19T18:50:09;99151.06;;;8.96;96.49
28312;BME280;15572;48.810;9.148;2023-02-19T18:55:08;99155.47;;;9.05;94.90
28312;BME280;15572;48.810;9.148;2023-02-19T19:00:06;99153.47;;;9.07;94.33
28312;BME280;15572;48.810;9.148;2023-02-19T19:05:03;99169.34;;;9.10;93.79
28312;BME280;15572;48.810;9.148;2023-02-19T19:09:59;99172.56;;;9.13;93.35
28312;BME280;15572;48.810;9.148;2023-02-19T19:14:57;99177.47;;;9.18;92.61
28312;BME280;15572;48.810;9.148;2023-02-19T19:19:54;99189.44;;;9.07;93.84
28312;BME280;15572;48.810;9.148;2023-02-19T19:24:50;99200.69;;;8.95;94.94
28312;BME280;15572;48.810;9.148;2023-02-19T19:29:47;99200.03;;;9.01;93.82
28312;BME280;15572;48.810;9.148;2023-02-19T19:34:45;99189.78;;;9.12;92.60
28312;BME280;15572;48.810;9.148;2023-02-19T19:39:42;99203.59;;;9.01;94.33
28312;BME280;15572;48.810;9.148;2023-02-19T19:44:38;99197.81;;;8.96;94.42
28312;BME280;15572;48.810;9.148;2023-02-19T19:49:35;99200.72;;;9.03;93.78
28312;BME280;15572;48.810;9.148;2023-02-19T19:54:33;99206.16;;;9.11;93.33
28312;BME280;15572;48.810;9.148;2023-02-19T19:59:31;99211.69;;;9.01;95.01
28312;BME280;15572;48.810;9.148;2023-02-19T20:04:33;99208.09;;;8.93;95.63
28312;BME280;15572;48.810;9.148;2023-02-19T20:09:29;99210.31;;;8.97;96.40
28312;BME280;15572;48.810;9.148;2023-02-19T20:14:27;99210.00;;;9.00;96.54
28312;BME280;15572;48.810;9.148;2023-02-19T20:19:24;99203.03;;;8.90;97.33
28312;BME280;15572;48.810;9.148;2023-02-19T20:24:23;99192.72;;;8.85;97.42
28312;BME280;15572;48.810;9.148;2023-02-19T20:29:20;99198.97;;;8.85;98.77
28312;BME280;15572;48.810;9.148;2023-02-19T20:34:18;99206.88;;;8.87;97.97
28312;BME280;15572;48.810;9.148;2023-02-19T20:39:15;99217.38;;;8.90;97.16
28312;BME280;15572;48.810;9.148;2023-02-19T20:44:12;99217.31;;;8.82;98.27
28312;BME280;15572;48.810;9.148;2023-02-19T20:49:09;99205.88;;;8.88;97.47
28312;BME280;15572;48.810;9.148;2023-02-19T20:54:07;99207.22;;;8.84;97.73
28312;BME280;15572;48.810;9.148;2023-02-19T20:59:03;99205.16;;;8.78;98.47
28312;BME280;15572;48.810;9.148;2023-02-19T21:04:00;99203.16;;;8.80;98.31
28312;BME280;15572;48.810;9.148;2023-02-19T21:08:56;99218.13;;;8.74;98.30
28312;BME280;15572;48.810;9.148;2023-02-19T21:13:54;99218.16;;;8.82;97.98
28312;BME280;15572;48.810;9.148;2023-02-19T21:18:53;99215.66;;;8.81;97.82
28312;BME280;15572;48.810;9.148;2023-02-19T21:23:49;99218.97;;;8.75;98.44
28312;BME280;15572;48.810;9.148;2023-02-19T21:28:46;99213.41;;;8.76;98.33
28312;BME280;15572;48.810;9.148;2023-02-19T21:33:44;99214.44;;;8.75;98.65
28312;BME280;15572;48.810;9.148;2023-02-19T21:38:40;99217.44;;;8.72;99.15
28312;BME280;15572;48.810;9.148;2023-02-19T21:43:37;99203.44;;;8.69;99.48
28312;BME280;15572;48.810;9.148;2023-02-19T21:48:33;99208.50;;;8.72;98.97
28312;BME280;15572;48.810;9.148;2023-02-19T21:53:31;99197.38;;;8.75;98.62
28312;BME280;15572;48.810;9.148;2023-02-19T21:58:28;99195.34;;;8.77;98.69
28312;BME280;15572;48.810;9.148;2023-02-19T22:03:24;99199.09;;;8.76;98.42
28312;BME280;15572;48.810;9.148;2023-02-19T22:08:21;99196.00;;;8.71;99.88
28312;BME280;15572;48.810;9.148;2023-02-19T22:13:18;99194.97;;;8.64;100.00
28312;BME280;15572;48.810;9.148;2023-02-19T22:18:15;99198.28;;;8.58;100.00
28312;BME280;15572;48.810;9.148;2023-02-19T22:23:11;99216.50;;;8.56;100.00
28312;BME280;15572;48.810;9.148;2023-02-19T22:28:08;99229.78;;;8.49;100.00
28312;BME280;15572;48.810;9.148;2023-02-19T22:33:06;99233.88;;;8.53;100.00
28312;BME280;15572;48.810;9.148;2023-02-19T22:38:02;99232.94;;;8.44;100.00
28312;BME280;15572;48.810;9.148;2023-02-19T22:42:59;99233.66;;;8.47;100.00
28312;BME280;15572;48.810;9.148;2023-02-19T22:47:55;99229.72;;;8.41;100.00
28312;BME280;15572;48.810;9.148;2023-02-19T22:52:53;99224.16;;;8.68;100.00
28312;BME280;15572;48.810;9.148;2023-02-19T22:57:50;99238.16;;;8.64;100.00
28312;BME280;15572;48.810;9.148;2023-02-19T23:02:46;99245.19;;;8.57;100.00
28312;BME280;15572;48.810;9.148;2023-02-19T23:07:43;99241.47;;;8.58;100.00
28312;BME280;15572;48.810;9.148;2023-02-19T23:12:41;99240.25;;;8.52;100.00
28312;BME280;15572;48.810;9.148;2023-02-19T23:17:37;99244.59;;;8.45;100.00
28312;BME280;15572;48.810;9.148;2023-02-19T23:22:34;99256.09;;;8.47;100.00
28312;BME280;15572;48.810;9.148;2023-02-19T23:27:31;99246.00;;;8.49;100.00
28312;BME280;15572;48.810;9.148;2023-02-19T23:32:28;99238.53;;;8.43;100.00
28312;BME280;15572;48.810;9.148;2023-02-19T23:37:25;99240.53;;;8.41;100.00
28312;BME280;15572;48.810;9.148;2023-02-19T23:42:21;99247.72;;;8.32;100.00
28312;BME280;15572;48.810;9.148;2023-02-19T23:47:18;99241.38;;;8.41;100.00
28312;BME280;15572;48.810;9.148;2023-02-19T23:52:17;99245.53;;;8.36;100.00
28312;BME280;15572;48.810;9.148;2023-02-19T23:57:14;99247.09;;;8.38;100.00
